sensor_id;sensor_type;location;lat;lon;timestamp;temperature;humidity
79762;DHT22;69249;42.122;24.734;2023-10-13T05:54:14;13.70;64.10
79762;DHT22;69249;42.122;24.734;2023-10-13T05:56:47;13.00;64.70
79762;DHT22;69249;42.122;24.734;2023-10-13T05:59:33;13.20;64.40
79762;DHT22;69249;42.122;24.734;2023-10-13T06:02:21;13.60;62.50
79762;DHT22;69249;42.122;24.734;2023-10-13T06:05:08;14.10;61.00
79762;DHT22;69249;42.122;24.734;2023-10-13T06:07:52;14.40;60.00
79762;DHT22;69249;42.122;24.734;2023-10-13T06:10:37;14.70;58.60
79762;DHT22;69249;42.122;24.734;2023-10-13T06:13:21;15.00;57.60
79762;DHT22;69249;42.122;24.734;2023-10-13T06:16:13;15.20;57.20
79762;DHT22;69249;42.122;24.734;2023-10-13T06:18:58;15.40;56.40
79762;DHT22;69249;42.122;24.734;2023-10-13T06:21:43;15.60;55.70
79762;DHT22;69249;42.122;24.734;2023-10-13T06:24:27;15.80;55.90
79762;DHT22;69249;42.122;24.734;2023-10-13T06:27:12;15.90;55.20
79762;DHT22;69249;42.122;24.734;2023-10-13T06:29:56;16.00;54.10
79762;DHT22;69249;42.122;24.734;2023-10-13T06:32:23;16.20;54.00
79762;DHT22;69249;42.122;24.734;2023-10-13T06:34:56;16.30;53.60
79762;DHT22;69249;42.122;24.734;2023-10-13T06:37:24;16.40;53.40
79762;DHT22;69249;42.122;24.734;2023-10-13T06:39:53;16.60;52.60
79762;DHT22;69249;42.122;24.734;2023-10-13T06:42:32;16.70;51.90
79762;DHT22;69249;42.122;24.734;2023-10-13T06:45:00;16.90;50.90
79762;DHT22;69249;42.122;24.734;2023-10-13T06:47:34;17.10;50.40
79762;DHT22;69249;42.122;24.734;2023-10-13T06:50:06;17.20;50.10
79762;DHT22;69249;42.122;24.734;2023-10-13T06:52:42;17.20;50.40
79762;DHT22;69249;42.122;24.734;2023-10-13T06:55:08;17.10;50.50
79762;DHT22;69249;42.122;24.734;2023-10-13T06:57:36;17.20;50.10
79762;DHT22;69249;42.122;24.734;2023-10-13T07:00:02;17.20;50.30
79762;DHT22;69249;42.122;24.734;2023-10-13T07:02:33;17.30;49.70
79762;DHT22;69249;42.122;24.734;2023-10-13T07:04:59;17.50;49.30
79762;DHT22;69249;42.122;24.734;2023-10-13T07:07:39;17.60;49.10
79762;DHT22;69249;42.122;24.734;2023-10-13T07:10:11;17.70;49.10
79762;DHT22;69249;42.122;24.734;2023-10-13T07:12:40;17.80;49.20
79762;DHT22;69249;42.122;24.734;2023-10-13T07:15:10;17.90;48.30
79762;DHT22;69249;42.122;24.734;2023-10-13T07:17:48;18.00;48.00
79762;DHT22;69249;42.122;24.734;2023-10-13T07:20:21;18.20;47.70
79762;DHT22;69249;42.122;24.734;2023-10-13T07:22:50;18.50;46.70
79762;DHT22;69249;42.122;24.734;2023-10-13T07:25:37;18.60;46.50
79762;DHT22;69249;42.122;24.734;2023-10-13T07:28:04;18.70;45.40
79762;DHT22;69249;42.122;24.734;2023-10-13T07:30:34;18.90;45.20
79762;DHT22;69249;42.122;24.734;2023-10-13T07:33:29;18.90;45.40
79762;DHT22;69249;42.122;24.734;2023-10-13T07:36:01;18.90;44.90
79762;DHT22;69249;42.122;24.734;2023-10-13T07:38:35;19.00;44.30
79762;DHT22;69249;42.122;24.734;2023-10-13T07:41:03;19.10;44.20
79762;DHT22;69249;42.122;24.734;2023-10-13T07:43:41;19.20;44.30
79762;DHT22;69249;42.122;24.734;2023-10-13T07:46:18;19.30;44.60
79762;DHT22;69249;42.122;24.734;2023-10-13T07:48:49;19.40;43.80
79762;DHT22;69249;42.122;24.734;2023-10-13T07:51:18;19.60;43.60
79762;DHT22;69249;42.122;24.734;2023-10-13T07:53:45;19.70;43.40
79762;DHT22;69249;42.122;24.734;2023-10-13T07:56:14;19.70;42.80
79762;DHT22;69249;42.122;24.734;2023-10-13T07:59:09;19.90;42.50
79762;DHT22;69249;42.122;24.734;2023-10-13T08:01:38;20.00;42.00
79762;DHT22;69249;42.122;24.734;2023-10-13T08:04:11;20.10;42.10
79762;DHT22;69249;42.122;24.734;2023-10-13T08:06:40;20.40;41.10
79762;DHT22;69249;42.122;24.734;2023-10-13T08:09:07;20.50;40.70
79762;DHT22;69249;42.122;24.734;2023-10-13T08:11:34;20.70;40.90
79762;DHT22;69249;42.122;24.734;2023-10-13T08:14:01;20.80;40.60
79762;DHT22;69249;42.122;24.734;2023-10-13T08:16:38;21.00;40.20
79762;DHT22;69249;42.122;24.734;2023-10-13T08:19:15;21.10;39.10
79762;DHT22;69249;42.122;24.734;2023-10-13T08:21:46;21.10;39.40
79762;DHT22;69249;42.122;24.734;2023-10-13T08:24:17;21.30;38.70
79762;DHT22;69249;42.122;24.734;2023-10-13T08:27:14;21.30;38.30
79762;DHT22;69249;42.122;24.734;2023-10-13T08:29:45;21.40;38.40
79762;DHT22;69249;42.122;24.734;2023-10-13T08:32:50;21.40;38.50
79762;DHT22;69249;42.122;24.734;2023-10-13T08:35:24;21.50;38.50
79762;DHT22;69249;42.122;24.734;2023-10-13T08:38:10;21.60;38.70
79762;DHT22;69249;42.122;24.734;2023-10-13T08:40:44;21.60;38.60
79762;DHT22;69249;42.122;24.734;2023-10-13T08:43:31;21.70;38.10
79762;DHT22;69249;42.122;24.734;2023-10-13T08:46:09;21.90;37.70
79762;DHT22;69249;42.122;24.734;2023-10-13T08:48:35;22.00;38.00
79762;DHT22;69249;42.122;24.734;2023-10-13T08:51:02;22.10;37.40
79762;DHT22;69249;42.122;24.734;2023-10-13T08:53:45;22.10;37.20
79762;DHT22;69249;42.122;24.734;2023-10-13T08:56:17;22.20;36.80
79762;DHT22;69249;42.122;24.734;2023-10-13T08:59:08;22.20;36.50
79762;DHT22;69249;42.122;24.734;2023-10-13T09:01:36;22.40;36.50
79762;DHT22;69249;42.122;24.734;2023-10-13T09:04:09;22.50;36.70
79762;DHT22;69249;42.122;24.734;2023-10-13T09:09:46;22.70;36.00
79762;DHT22;69249;42.122;24.734;2023-10-13T09:12:16;22.80;35.90
79762;DHT22;69249;42.122;24.734;2023-10-13T09:14:51;22.90;35.90
79762;DHT22;69249;42.122;24.734;2023-10-13T09:17:29;22.90;35.30
79762;DHT22;69249;42.122;24.734;2023-10-13T09:20:06;23.10;35.20
79762;DHT22;69249;42.122;24.734;2023-10-13T09:22:51;23.20;36.20
79762;DHT22;69249;42.122;24.734;2023-10-13T09:25:33;23.30;35.20
79762;DHT22;69249;42.122;24.734;2023-10-13T09:28:12;23.40;34.50
79762;DHT22;69249;42.122;24.734;2023-10-13T09:30:48;23.70;33.60
79762;DHT22;69249;42.122;24.734;2023-10-13T09:33:22;23.70;33.80
79762;DHT22;69249;42.122;24.734;2023-10-13T09:36:16;23.60;33.70
79762;DHT22;69249;42.122;24.734;2023-10-13T09:38:42;23.70;33.70
79762;DHT22;69249;42.122;24.734;2023-10-13T09:41:14;23.80;33.40
79762;DHT22;69249;42.122;24.734;2023-10-13T09:43:52;23.90;32.60
79762;DHT22;69249;42.122;24.734;2023-10-13T09:46:21;24.00;32.90
79762;DHT22;69249;42.122;24.734;2023-10-13T09:48:58;24.10;33.00
79762;DHT22;69249;42.122;24.734;2023-10-13T09:51:33;24.30;31.90
79762;DHT22;69249;42.122;24.734;2023-10-13T09:56:46;24.40;32.90
79762;DHT22;69249;42.122;24.734;2023-10-13T09:59:26;24.20;32.90
79762;DHT22;69249;42.122;24.734;2023-10-13T10:02:05;24.40;33.30
79762;DHT22;69249;42.122;24.734;2023-10-13T10:04:35;24.50;32.80
79762;DHT22;69249;42.122;24.734;2023-10-13T10:07:27;24.70;33.30
79762;DHT22;69249;42.122;24.734;2023-10-13T10:09:59;24.80;32.70
79762;DHT22;69249;42.122;24.734;2023-10-13T10:12:52;24.90;32.90
79762;DHT22;69249;42.122;24.734;2023-10-13T10:15:29;25.00;31.90
79762;DHT22;69249;42.122;24.734;2023-10-13T10:18:03;25.20;31.00
79762;DHT22;69249;42.122;24.734;2023-10-13T10:20:34;25.20;31.30
79762;DHT22;69249;42.122;24.734;2023-10-13T10:23:28;25.10;31.70
79762;DHT22;69249;42.122;24.734;2023-10-13T10:26:12;25.20;31.50
79762;DHT22;69249;42.122;24.734;2023-10-13T10:28:46;25.30;31.20
79762;DHT22;69249;42.122;24.734;2023-10-13T10:31:12;25.40;30.50
79762;DHT22;69249;42.122;24.734;2023-10-13T10:33:41;25.50;30.50
79762;DHT22;69249;42.122;24.734;2023-10-13T10:36:07;25.60;29.80
79762;DHT22;69249;42.122;24.734;2023-10-13T10:38:57;25.80;29.60
79762;DHT22;69249;42.122;24.734;2023-10-13T10:41:31;25.80;30.10
79762;DHT22;69249;42.122;24.734;2023-10-13T10:44:20;26.00;30.20
79762;DHT22;69249;42.122;24.734;2023-10-13T10:47:12;26.00;30.00
79762;DHT22;69249;42.122;24.734;2023-10-13T10:50:00;26.10;29.40
79762;DHT22;69249;42.122;24.734;2023-10-13T10:52:34;26.20;29.50
79762;DHT22;69249;42.122;24.734;2023-10-13T10:55:03;26.20;29.20
79762;DHT22;69249;42.122;24.734;2023-10-13T10:57:33;26.20;29.20
79762;DHT22;69249;42.122;24.734;2023-10-13T11:00:03;26.20;29.30
79762;DHT22;69249;42.122;24.734;2023-10-13T11:02:40;26.40;29.00
79762;DHT22;69249;42.122;24.734;2023-10-13T11:05:07;26.60;28.60
79762;DHT22;69249;42.122;24.734;2023-10-13T11:07:35;26.50;28.20
79762;DHT22;69249;42.122;24.734;2023-10-13T11:10:09;26.50;28.80
79762;DHT22;69249;42.122;24.734;2023-10-13T11:12:55;26.60;28.70
79762;DHT22;69249;42.122;24.734;2023-10-13T11:15:21;26.80;27.70
79762;DHT22;69249;42.122;24.734;2023-10-13T11:17:51;27.00;27.30
79762;DHT22;69249;42.122;24.734;2023-10-13T11:20:20;27.10;29.00
79762;DHT22;69249;42.122;24.734;2023-10-13T11:23:12;27.20;28.30
79762;DHT22;69249;42.122;24.734;2023-10-13T11:25:38;27.60;28.10
79762;DHT22;69249;42.122;24.734;2023-10-13T11:28:14;28.00;26.10
79762;DHT22;69249;42.122;24.734;2023-10-13T11:30:49;28.60;26.00
79762;DHT22;69249;42.122;24.734;2023-10-13T11:33:16;29.30;25.90
79762;DHT22;69249;42.122;24.734;2023-10-13T11:35:58;30.10;25.20
79762;DHT22;69249;42.122;24.734;2023-10-13T11:38:33;30.50;24.70
79762;DHT22;69249;42.122;24.734;2023-10-13T11:41:14;30.40;24.90
79762;DHT22;69249;42.122;24.734;2023-10-13T11:43:47;30.30;25.40
79762;DHT22;69249;42.122;24.734;2023-10-13T11:49:04;29.90;24.40
79762;DHT22;69249;42.122;24.734;2023-10-13T11:51:51;30.00;25.40
79762;DHT22;69249;42.122;24.734;2023-10-13T11:54:22;30.40;24.20
79762;DHT22;69249;42.122;24.734;2023-10-13T11:56:49;30.70;23.30
79762;DHT22;69249;42.122;24.734;2023-10-13T11:59:15;31.60;23.30
79762;DHT22;69249;42.122;24.734;2023-10-13T12:01:47;32.70;22.10
79762;DHT22;69249;42.122;24.734;2023-10-13T12:04:33;33.90;21.50
79762;DHT22;69249;42.122;24.734;2023-10-13T12:07:18;35.80;19.30
79762;DHT22;69249;42.122;24.734;2023-10-13T12:09:50;37.20;18.10
79762;DHT22;69249;42.122;24.734;2023-10-13T12:12:29;38.70;17.40
79762;DHT22;69249;42.122;24.734;2023-10-13T12:14:56;40.20;16.60
79762;DHT22;69249;42.122;24.734;2023-10-13T12:17:23;41.20;15.70
79762;DHT22;69249;42.122;24.734;2023-10-13T12:20:00;41.80;14.50
79762;DHT22;69249;42.122;24.734;2023-10-13T12:22:30;42.60;14.50
79762;DHT22;69249;42.122;24.734;2023-10-13T12:25:07;43.50;14.10
79762;DHT22;69249;42.122;24.734;2023-10-13T12:27:50;44.10;13.80
79762;DHT22;69249;42.122;24.734;2023-10-13T12:30:21;44.60;13.30
79762;DHT22;69249;42.122;24.734;2023-10-13T12:33:24;45.10;12.90
79762;DHT22;69249;42.122;24.734;2023-10-13T12:36:10;45.30;11.90
79762;DHT22;69249;42.122;24.734;2023-10-13T12:38:39;44.70;12.00
79762;DHT22;69249;42.122;24.734;2023-10-13T12:41:22;43.80;12.80
79762;DHT22;69249;42.122;24.734;2023-10-13T12:44:06;42.90;13.10
79762;DHT22;69249;42.122;24.734;2023-10-13T12:46:51;42.20;13.20
79762;DHT22;69249;42.122;24.734;2023-10-13T12:49:36;40.70;13.90
79762;DHT22;69249;42.122;24.734;2023-10-13T12:52:08;39.30;14.60
79762;DHT22;69249;42.122;24.734;2023-10-13T12:54:51;37.90;15.30
79762;DHT22;69249;42.122;24.734;2023-10-13T12:57:26;36.70;16.50
79762;DHT22;69249;42.122;24.734;2023-10-13T12:59:51;36.20;16.50
79762;DHT22;69249;42.122;24.734;2023-10-13T13:02:24;35.70;17.00
79762;DHT22;69249;42.122;24.734;2023-10-13T13:04:54;35.20;17.00
79762;DHT22;69249;42.122;24.734;2023-10-13T13:07:23;34.40;17.90
79762;DHT22;69249;42.122;24.734;2023-10-13T13:09:54;33.70;18.80
79762;DHT22;69249;42.122;24.734;2023-10-13T13:12:24;33.10;19.50
79762;DHT22;69249;42.122;24.734;2023-10-13T13:14:50;32.50;20.30
79762;DHT22;69249;42.122;24.734;2023-10-13T13:17:20;31.80;21.00
79762;DHT22;69249;42.122;24.734;2023-10-13T13:19:46;31.30;21.30
79762;DHT22;69249;42.122;24.734;2023-10-13T13:22:12;31.00;21.70
79762;DHT22;69249;42.122;24.734;2023-10-13T13:24:39;30.70;21.80
79762;DHT22;69249;42.122;24.734;2023-10-13T13:27:12;30.50;23.30
79762;DHT22;69249;42.122;24.734;2023-10-13T13:29:45;30.30;21.40
79762;DHT22;69249;42.122;24.734;2023-10-13T13:32:11;30.10;21.10
79762;DHT22;69249;42.122;24.734;2023-10-13T13:34:54;29.90;21.30
79762;DHT22;69249;42.122;24.734;2023-10-13T13:37:39;29.80;21.40
79762;DHT22;69249;42.122;24.734;2023-10-13T13:40:06;29.80;21.80
79762;DHT22;69249;42.122;24.734;2023-10-13T13:42:42;29.60;21.70
79762;DHT22;69249;42.122;24.734;2023-10-13T13:45:18;29.40;22.20
79762;DHT22;69249;42.122;24.734;2023-10-13T13:47:49;29.30;22.90
79762;DHT22;69249;42.122;24.734;2023-10-13T13:50:25;29.30;22.40
79762;DHT22;69249;42.122;24.734;2023-10-13T13:52:55;29.20;22.10
79762;DHT22;69249;42.122;24.734;2023-10-13T13:55:25;29.10;23.00
79762;DHT22;69249;42.122;24.734;2023-10-13T13:57:57;28.90;23.70
79762;DHT22;69249;42.122;24.734;2023-10-13T14:00:23;28.90;23.30
79762;DHT22;69249;42.122;24.734;2023-10-13T14:03:06;28.90;22.80
79762;DHT22;69249;42.122;24.734;2023-10-13T14:05:42;28.90;22.60
79762;DHT22;69249;42.122;24.734;2023-10-13T14:08:07;29.00;22.70
79762;DHT22;69249;42.122;24.734;2023-10-13T14:10:38;29.10;22.90
79762;DHT22;69249;42.122;24.734;2023-10-13T14:13:24;29.30;22.70
79762;DHT22;69249;42.122;24.734;2023-10-13T14:16:09;29.70;23.00
79762;DHT22;69249;42.122;24.734;2023-10-13T14:18:45;30.00;22.10
79762;DHT22;69249;42.122;24.734;2023-10-13T14:21:11;30.00;22.20
79762;DHT22;69249;42.122;24.734;2023-10-13T14:23:46;29.90;22.50
79762;DHT22;69249;42.122;24.734;2023-10-13T14:26:18;29.70;23.30
79762;DHT22;69249;42.122;24.734;2023-10-13T14:28:51;29.50;23.70
79762;DHT22;69249;42.122;24.734;2023-10-13T14:31:42;29.30;22.70
79762;DHT22;69249;42.122;24.734;2023-10-13T14:34:09;29.20;23.20
79762;DHT22;69249;42.122;24.734;2023-10-13T14:36:36;29.10;23.10
79762;DHT22;69249;42.122;24.734;2023-10-13T14:39:02;29.20;22.90
79762;DHT22;69249;42.122;24.734;2023-10-13T14:41:37;29.40;22.60
79762;DHT22;69249;42.122;24.734;2023-10-13T14:44:06;29.70;22.30
79762;DHT22;69249;42.122;24.734;2023-10-13T14:46:35;29.80;22.20
79762;DHT22;69249;42.122;24.734;2023-10-13T14:49:05;29.60;22.60
79762;DHT22;69249;42.122;24.734;2023-10-13T14:51:31;29.30;23.00
79762;DHT22;69249;42.122;24.734;2023-10-13T14:53:58;29.10;23.20
79762;DHT22;69249;42.122;24.734;2023-10-13T14:56:26;28.80;23.50
79762;DHT22;69249;42.122;24.734;2023-10-13T14:58:53;28.50;23.50
79762;DHT22;69249;42.122;24.734;2023-10-13T15:01:21;28.30;23.80
79762;DHT22;69249;42.122;24.734;2023-10-13T15:03:48;28.10;24.10
79762;DHT22;69249;42.122;24.734;2023-10-13T15:06:22;27.80;24.10
79762;DHT22;69249;42.122;24.734;2023-10-13T15:08:52;27.60;24.10
79762;DHT22;69249;42.122;24.734;2023-10-13T15:11:20;27.40;24.40
79762;DHT22;69249;42.122;24.734;2023-10-13T15:13:53;27.30;24.70
79762;DHT22;69249;42.122;24.734;2023-10-13T15:16:22;27.20;25.00
79762;DHT22;69249;42.122;24.734;2023-10-13T15:18:49;27.00;25.20
79762;DHT22;69249;42.122;24.734;2023-10-13T15:21:19;26.90;25.40
79762;DHT22;69249;42.122;24.734;2023-10-13T15:23:47;26.80;25.40
79762;DHT22;69249;42.122;24.734;2023-10-13T15:26:12;26.60;25.70
79762;DHT22;69249;42.122;24.734;2023-10-13T15:28:40;26.50;25.90
79762;DHT22;69249;42.122;24.734;2023-10-13T15:31:19;26.30;25.90
79762;DHT22;69249;42.122;24.734;2023-10-13T15:34:01;26.10;26.10
79762;DHT22;69249;42.122;24.734;2023-10-13T15:36:39;26.00;26.50
79762;DHT22;69249;42.122;24.734;2023-10-13T15:39:05;25.80;26.70
79762;DHT22;69249;42.122;24.734;2023-10-13T15:41:35;25.70;27.00
79762;DHT22;69249;42.122;24.734;2023-10-13T15:44:04;25.50;27.20
79762;DHT22;69249;42.122;24.734;2023-10-13T15:46:35;25.40;27.40
79762;DHT22;69249;42.122;24.734;2023-10-13T15:49:01;25.30;27.50
79762;DHT22;69249;42.122;24.734;2023-10-13T15:51:28;25.10;27.80
79762;DHT22;69249;42.122;24.734;2023-10-13T15:53:55;25.00;27.80
79762;DHT22;69249;42.122;24.734;2023-10-13T15:56:21;24.90;27.90
79762;DHT22;69249;42.122;24.734;2023-10-13T15:58:47;24.90;28.20
79762;DHT22;69249;42.122;24.734;2023-10-13T16:01:16;24.80;28.30
79762;DHT22;69249;42.122;24.734;2023-10-13T16:03:43;24.70;28.20
79762;DHT22;69249;42.122;24.734;2023-10-13T16:06:13;24.60;28.20
79762;DHT22;69249;42.122;24.734;2023-10-13T16:08:42;24.50;28.30
79762;DHT22;69249;42.122;24.734;2023-10-13T16:11:17;24.50;28.40
79762;DHT22;69249;42.122;24.734;2023-10-13T16:13:50;24.50;28.60
79762;DHT22;69249;42.122;24.734;2023-10-13T16:16:21;24.40;28.70
79762;DHT22;69249;42.122;24.734;2023-10-13T16:18:48;24.40;28.90
79762;DHT22;69249;42.122;24.734;2023-10-13T16:21:15;24.30;29.00
79762;DHT22;69249;42.122;24.734;2023-10-13T16:23:41;24.30;29.10
79762;DHT22;69249;42.122;24.734;2023-10-13T16:26:09;24.20;29.10
79762;DHT22;69249;42.122;24.734;2023-10-13T16:28:35;24.10;29.00
79762;DHT22;69249;42.122;24.734;2023-10-13T16:31:05;24.10;29.30
79762;DHT22;69249;42.122;24.734;2023-10-13T16:33:31;24.10;29.40
79762;DHT22;69249;42.122;24.734;2023-10-13T16:36:00;24.00;29.50
79762;DHT22;69249;42.122;24.734;2023-10-13T16:38:25;24.00;29.60
79762;DHT22;69249;42.122;24.734;2023-10-13T16:40:54;23.90;30.10
79762;DHT22;69249;42.122;24.734;2023-10-13T16:43:20;23.90;30.40
79762;DHT22;69249;42.122;24.734;2023-10-13T16:45:46;23.90;29.70
79762;DHT22;69249;42.122;24.734;2023-10-13T16:48:11;23.90;29.50
79762;DHT22;69249;42.122;24.734;2023-10-13T16:50:43;23.90;29.50
79762;DHT22;69249;42.122;24.734;2023-10-13T16:53:12;23.90;29.10
79762;DHT22;69249;42.122;24.734;2023-10-13T16:55:38;24.00;28.90
79762;DHT22;69249;42.122;24.734;2023-10-13T16:58:11;24.00;29.00
79762;DHT22;69249;42.122;24.734;2023-10-13T17:00:39;23.80;29.80
79762;DHT22;69249;42.122;24.734;2023-10-13T17:03:08;23.80;29.00
79762;DHT22;69249;42.122;24.734;2023-10-13T17:05:45;23.80;29.10
79762;DHT22;69249;42.122;24.734;2023-10-13T17:08:11;23.80;29.30
79762;DHT22;69249;42.122;24.734;2023-10-13T17:10:39;23.70;29.30
79762;DHT22;69249;42.122;24.734;2023-10-13T17:13:05;23.70;29.40
79762;DHT22;69249;42.122;24.734;2023-10-13T17:15:32;23.70;29.70
79762;DHT22;69249;42.122;24.734;2023-10-13T17:18:02;23.70;29.70
79762;DHT22;69249;42.122;24.734;2023-10-13T17:20:40;23.60;29.70
79762;DHT22;69249;42.122;24.734;2023-10-13T17:23:06;23.60;29.80
79762;DHT22;69249;42.122;24.734;2023-10-13T17:25:33;23.50;30.00
79762;DHT22;69249;42.122;24.734;2023-10-13T17:28:00;23.50;30.20
79762;DHT22;69249;42.122;24.734;2023-10-13T17:30:31;23.40;30.30
79762;DHT22;69249;42.122;24.734;2023-10-13T17:32:57;23.40;30.30
79762;DHT22;69249;42.122;24.734;2023-10-13T17:35:23;23.40;30.70
79762;DHT22;69249;42.122;24.734;2023-10-13T17:37:50;23.50;30.80
79762;DHT22;69249;42.122;24.734;2023-10-13T17:40:18;23.50;30.40
79762;DHT22;69249;42.122;24.734;2023-10-13T17:42:46;23.40;30.40
79762;DHT22;69249;42.122;24.734;2023-10-13T17:45:15;23.40;30.20
79762;DHT22;69249;42.122;24.734;2023-10-13T17:47:41;23.30;30.50
79762;DHT22;69249;42.122;24.734;2023-10-13T17:50:09;23.30;30.80
79762;DHT22;69249;42.122;24.734;2023-10-13T17:52:35;23.30;30.70
79762;DHT22;69249;42.122;24.734;2023-10-13T17:55:07;23.20;30.90
79762;DHT22;69249;42.122;24.734;2023-10-13T17:57:33;23.20;31.10
79762;DHT22;69249;42.122;24.734;2023-10-13T18:00:00;23.20;30.90
79762;DHT22;69249;42.122;24.734;2023-10-13T18:02:28;23.20;30.80
79762;DHT22;69249;42.122;24.734;2023-10-13T18:04:54;23.20;30.80
79762;DHT22;69249;42.122;24.734;2023-10-13T18:07:19;23.20;31.10
79762;DHT22;69249;42.122;24.734;2023-10-13T18:09:47;23.20;30.80
79762;DHT22;69249;42.122;24.734;2023-10-13T18:12:12;23.20;30.90
79762;DHT22;69249;42.122;24.734;2023-10-13T18:14:38;23.10;31.00
79762;DHT22;69249;42.122;24.734;2023-10-13T18:17:05;23.10;31.40
79762;DHT22;69249;42.122;24.734;2023-10-13T18:19:34;23.10;31.30
79762;DHT22;69249;42.122;24.734;2023-10-13T18:22:01;23.10;31.10
79762;DHT22;69249;42.122;24.734;2023-10-13T18:24:31;23.00;31.50
79762;DHT22;69249;42.122;24.734;2023-10-13T18:26:57;23.00;31.80
79762;DHT22;69249;42.122;24.734;2023-10-13T18:29:23;23.00;31.90
79762;DHT22;69249;42.122;24.734;2023-10-13T18:31:50;23.10;31.40
79762;DHT22;69249;42.122;24.734;2023-10-13T18:34:17;23.20;31.20
79762;DHT22;69249;42.122;24.734;2023-10-13T18:36:45;23.10;31.20
79762;DHT22;69249;42.122;24.734;2023-10-13T18:39:12;23.00;31.30
79762;DHT22;69249;42.122;24.734;2023-10-13T18:41:44;22.90;31.60
79762;DHT22;69249;42.122;24.734;2023-10-13T18:44:10;22.90;31.50
79762;DHT22;69249;42.122;24.734;2023-10-13T18:46:36;22.80;31.50
79762;DHT22;69249;42.122;24.734;2023-10-13T18:49:02;22.80;31.70
79762;DHT22;69249;42.122;24.734;2023-10-13T18:51:27;22.80;31.70
79762;DHT22;69249;42.122;24.734;2023-10-13T18:53:53;22.80;31.70
79762;DHT22;69249;42.122;24.734;2023-10-13T18:56:22;22.70;31.60
79762;DHT22;69249;42.122;24.734;2023-10-13T18:58:52;22.70;31.60
79762;DHT22;69249;42.122;24.734;2023-10-13T19:01:25;22.70;31.90
79762;DHT22;69249;42.122;24.734;2023-10-13T19:04:01;22.70;32.10
79762;DHT22;69249;42.122;24.734;2023-10-13T19:06:30;22.60;32.20
79762;DHT22;69249;42.122;24.734;2023-10-13T19:08:56;22.70;32.60
79762;DHT22;69249;42.122;24.734;2023-10-13T19:11:22;23.00;32.20
79762;DHT22;69249;42.122;24.734;2023-10-13T19:13:49;23.10;31.80
79762;DHT22;69249;42.122;24.734;2023-10-13T19:16:16;23.00;32.00
79762;DHT22;69249;42.122;24.734;2023-10-13T19:18:43;22.80;32.70
79762;DHT22;69249;42.122;24.734;2023-10-13T19:21:16;22.70;34.20
79762;DHT22;69249;42.122;24.734;2023-10-13T19:23:52;22.60;33.50
79762;DHT22;69249;42.122;24.734;2023-10-13T19:26:28;22.60;33.70
79762;DHT22;69249;42.122;24.734;2023-10-13T19:28:56;22.50;32.90
79762;DHT22;69249;42.122;24.734;2023-10-13T19:31:23;22.50;33.60
79762;DHT22;69249;42.122;24.734;2023-10-13T19:33:57;22.40;34.30
79762;DHT22;69249;42.122;24.734;2023-10-13T19:36:28;22.50;34.30
79762;DHT22;69249;42.122;24.734;2023-10-13T19:38:57;22.50;34.50
79762;DHT22;69249;42.122;24.734;2023-10-13T19:41:25;22.40;34.80
79762;DHT22;69249;42.122;24.734;2023-10-13T19:43:55;22.30;34.00
79762;DHT22;69249;42.122;24.734;2023-10-13T19:46:23;22.50;32.80
79762;DHT22;69249;42.122;24.734;2023-10-13T19:48:50;22.40;32.80
79762;DHT22;69249;42.122;24.734;2023-10-13T19:51:16;22.40;34.10
79762;DHT22;69249;42.122;24.734;2023-10-13T19:53:45;22.40;33.50
79762;DHT22;69249;42.122;24.734;2023-10-13T19:56:17;22.50;32.80
79762;DHT22;69249;42.122;24.734;2023-10-13T19:58:43;22.50;32.50
79762;DHT22;69249;42.122;24.734;2023-10-13T20:01:10;22.60;32.60
79762;DHT22;69249;42.122;24.734;2023-10-13T20:03:37;22.80;32.30
79762;DHT22;69249;42.122;24.734;2023-10-13T20:06:10;22.70;32.30
79762;DHT22;69249;42.122;24.734;2023-10-13T20:08:36;22.60;33.40
79762;DHT22;69249;42.122;24.734;2023-10-13T20:11:03;22.60;33.80
79762;DHT22;69249;42.122;24.734;2023-10-13T20:13:29;22.50;34.00
79762;DHT22;69249;42.122;24.734;2023-10-13T20:15:59;22.40;33.80
79762;DHT22;69249;42.122;24.734;2023-10-13T20:18:27;22.30;33.70
79762;DHT22;69249;42.122;24.734;2023-10-13T20:20:55;22.40;33.40
79762;DHT22;69249;42.122;24.734;2023-10-13T20:23:22;22.50;33.10
79762;DHT22;69249;42.122;24.734;2023-10-13T20:25:48;22.30;33.50
79762;DHT22;69249;42.122;24.734;2023-10-13T20:28:17;22.20;34.10
79762;DHT22;69249;42.122;24.734;2023-10-13T20:30:43;22.10;34.10
79762;DHT22;69249;42.122;24.734;2023-10-13T20:33:09;22.30;33.80
79762;DHT22;69249;42.122;24.734;2023-10-13T20:35:55;22.40;33.20
79762;DHT22;69249;42.122;24.734;2023-10-13T20:38:21;22.50;33.00
79762;DHT22;69249;42.122;24.734;2023-10-13T20:40:57;22.40;33.40
79762;DHT22;69249;42.122;24.734;2023-10-13T20:43:25;22.20;33.80
79762;DHT22;69249;42.122;24.734;2023-10-13T20:45:51;22.30;33.40
79762;DHT22;69249;42.122;24.734;2023-10-13T20:48:17;22.30;33.30
79762;DHT22;69249;42.122;24.734;2023-10-13T20:50:43;22.20;33.70
79762;DHT22;69249;42.122;24.734;2023-10-13T20:53:09;22.10;33.90
79762;DHT22;69249;42.122;24.734;2023-10-13T20:55:34;22.00;34.40
79762;DHT22;69249;42.122;24.734;2023-10-13T20:58:03;22.00;34.30
79762;DHT22;69249;42.122;24.734;2023-10-13T21:00:28;21.80;34.70
79762;DHT22;69249;42.122;24.734;2023-10-13T21:02:55;21.70;35.30
79762;DHT22;69249;42.122;24.734;2023-10-13T21:05:22;21.60;35.90
79762;DHT22;69249;42.122;24.734;2023-10-13T21:07:49;21.80;34.80
79762;DHT22;69249;42.122;24.734;2023-10-13T21:10:15;21.80;34.90
79762;DHT22;69249;42.122;24.734;2023-10-13T21:12:42;21.50;35.50
79762;DHT22;69249;42.122;24.734;2023-10-13T21:15:09;21.40;36.20
79762;DHT22;69249;42.122;24.734;2023-10-13T21:17:45;21.50;35.80
79762;DHT22;69249;42.122;24.734;2023-10-13T21:20:12;21.40;36.00
79762;DHT22;69249;42.122;24.734;2023-10-13T21:22:47;21.30;36.20
79762;DHT22;69249;42.122;24.734;2023-10-13T21:25:14;21.20;36.50
79762;DHT22;69249;42.122;24.734;2023-10-13T21:28:08;21.20;36.80
79762;DHT22;69249;42.122;24.734;2023-10-13T21:30:34;21.40;35.70
79762;DHT22;69249;42.122;24.734;2023-10-13T21:33:01;21.40;35.90
79762;DHT22;69249;42.122;24.734;2023-10-13T21:35:30;21.20;36.70
79762;DHT22;69249;42.122;24.734;2023-10-13T21:37:57;21.30;37.10
79762;DHT22;69249;42.122;24.734;2023-10-13T21:40:24;21.20;36.40
79762;DHT22;69249;42.122;24.734;2023-10-13T21:42:55;21.20;35.90
79762;DHT22;69249;42.122;24.734;2023-10-13T21:45:21;21.10;37.90
79762;DHT22;69249;42.122;24.734;2023-10-13T21:47:49;21.00;36.70